Terminal Aerodrome Forecast
Issued by NWS

Home | Current Version | Previous Version | Text Only | Print | Product List | Glossary On
Versions: 1 2 3 4 5 6 7 8 9 10 11 12 13 14 15 16
000
FTUS43 KLSX 271640 AAB
TAFUIN
TAF AMD
KUIN 271640Z 2717/2812 16015G24KT P6SM BKN015
     FM271900 17012G20KT P6SM SCT025 BKN040
     FM272100 18012KT 6SM -SHRA VCTS SCT050CB BKN100
     FM280300 17010KT P6SM SCT050 BKN100=

USA.gov is the U.S. government's official web portal to all federal, state and local government web resources and services.